Time;durP1;ratioP1;P1;durP2;ratioP2;P2;SDS_P1;SDS_P2;PMS_P1;PMS_P2;Temp;Humidity;BMP_temperature;BMP_pressure;BME280_temperature;BME280_humidity;BME280_pressure;Samples;Min_cycle;Max_cycle;Signal;HPM_P1;HPM_P2
2023/12/20 00:00:54;;;;;;;;;;;5.80;99.90;;;;;;4979807;28;19951;-66
2023/12/20 00:03:20;;;;;;;;;;;5.80;99.90;;;;;;4965621;28;19988;-66
2023/12/20 00:05:47;;;;;;;;;;;5.80;99.90;;;;;;4981719;28;19956;-66
2023/12/20 00:08:13;;;;;;;;;;;5.80;99.90;;;;;;4935837;28;19925;-66
2023/12/20 00:10:39;;;;;;;;;;;5.70;99.90;;;;;;4980244;28;20547;-67
2023/12/20 00:13:06;;;;;;;;;;;5.70;99.90;;;;;;4937479;28;19925;-66
2023/12/20 00:15:33;;;;;;;;;;;5.70;99.90;;;;;;4960370;28;20383;-66
2023/12/20 00:17:59;;;;;;;;;;;5.70;99.90;;;;;;4933965;28;20661;-67
2023/12/20 00:20:25;;;;;;;;;;;5.70;99.90;;;;;;4971487;28;19929;-66
2023/12/20 00:22:51;;;;;;;;;;;5.70;99.90;;;;;;4943873;28;19930;-66
2023/12/20 00:25:17;;;;;;;;;;;5.80;99.90;;;;;;4978615;28;19932;-66
2023/12/20 00:27:43;;;;;;;;;;;5.70;99.90;;;;;;4940271;28;19925;-66
2023/12/20 00:30:09;;;;;;;;;;;5.70;99.90;;;;;;4972482;28;20580;-66
2023/12/20 00:32:35;;;;;;;;;;;5.70;99.90;;;;;;4941873;28;19933;-66
2023/12/20 00:35:01;;;;;;;;;;;5.70;99.90;;;;;;4951422;28;19925;-66
2023/12/20 00:37:27;;;;;;;;;;;5.70;99.90;;;;;;4941048;28;21355;-66
2023/12/20 00:39:53;;;;;;;;;;;5.70;99.90;;;;;;4973382;28;20376;-66
2023/12/20 00:42:19;;;;;;;;;;;5.70;99.90;;;;;;4952084;28;19929;-66
2023/12/20 00:44:45;;;;;;;;;;;5.80;99.90;;;;;;4984897;28;19940;-67
2023/12/20 00:47:11;;;;;;;;;;;5.80;99.90;;;;;;4948115;28;19925;-67
2023/12/20 00:49:37;;;;;;;;;;;5.80;99.90;;;;;;4974007;28;19932;-66
2023/12/20 00:52:03;;;;;;;;;;;5.80;99.90;;;;;;4947888;28;20004;-65
2023/12/20 00:54:30;;;;;;;;;;;5.80;99.90;;;;;;4972684;28;19928;-66
2023/12/20 00:56:56;;;;;;;;;;;5.80;99.90;;;;;;4933231;28;20507;-67
2023/12/20 00:59:22;;;;;;;;;;;5.80;99.90;;;;;;4977284;28;19929;-65
2023/12/20 01:01:48;;;;;;;;;;;5.80;99.90;;;;;;4946985;28;19972;-65
2023/12/20 01:04:14;;;;;;;;;;;5.80;99.90;;;;;;4963985;28;19997;-67
2023/12/20 01:06:40;;;;;;;;;;;5.80;99.90;;;;;;4948317;28;20291;-68
2023/12/20 01:09:06;;;;;;;;;;;5.80;99.90;;;;;;4970736;28;19983;-66
2023/12/20 01:11:31;;;;;;;;;;;5.80;99.90;;;;;;4930865;28;20014;-66
2023/12/20 01:13:57;;;;;;;;;;;5.80;99.90;;;;;;4961957;28;19929;-66
2023/12/20 01:16:23;;;;;;;;;;;5.80;99.90;;;;;;4972724;28;19925;-65
2023/12/20 01:18:49;;;;;;;;;;;5.70;99.90;;;;;;4940996;28;19925;-65
2023/12/20 01:21:15;;;;;;;;;;;5.70;99.90;;;;;;4979743;28;19940;-66
2023/12/20 01:23:41;;;;;;;;;;;5.70;99.90;;;;;;4933649;28;20111;-66
2023/12/20 01:26:07;;;;;;;;;;;5.70;99.90;;;;;;4979300;28;19925;-66
2023/12/20 01:28:33;;;;;;;;;;;5.70;99.90;;;;;;4942090;28;19926;-66
2023/12/20 01:30:59;;;;;;;;;;;5.70;99.90;;;;;;4978841;28;19940;-66
2023/12/20 01:33:25;;;;;;;;;;;5.70;99.90;;;;;;4931697;28;19929;-66
2023/12/20 01:35:51;;;;;;;;;;;5.60;99.90;;;;;;4981100;28;19925;-65
2023/12/20 01:38:18;;;;;;;;;;;5.70;99.90;;;;;;4963928;28;19929;-66
2023/12/20 01:40:44;;;;;;;;;;;5.70;99.90;;;;;;4943792;28;21081;-67
2023/12/20 01:43:12;;;;;;;;;;;5.70;99.90;;;;;;4926508;28;19930;-67
2023/12/20 01:45:38;;;;;;;;;;;5.70;99.90;;;;;;4959289;28;19932;-66
2023/12/20 01:48:04;;;;;;;;;;;5.70;99.90;;;;;;4941926;28;20563;-67
2023/12/20 01:50:31;;;;;;;;;;;5.70;99.90;;;;;;4960244;28;19929;-66
2023/12/20 01:52:58;;;;;;;;;;;5.70;99.90;;;;;;4941397;28;19952;-67
2023/12/20 01:55:24;;;;;;;;;;;5.80;99.90;;;;;;4958334;28;20820;-67
2023/12/20 01:57:51;;;;;;;;;;;5.80;99.90;;;;;;4944977;28;19972;-66
2023/12/20 02:00:18;;;;;;;;;;;5.80;99.90;;;;;;4956310;28;20487;-67
2023/12/20 02:02:44;;;;;;;;;;;5.80;99.90;;;;;;4938309;28;20043;-67
2023/12/20 02:05:11;;;;;;;;;;;5.70;99.90;;;;;;4970566;28;19925;-67
2023/12/20 02:07:36;;;;;;;;;;;5.80;99.90;;;;;;4938228;28;20626;-66
2023/12/20 02:10:04;;;;;;;;;;;5.80;99.90;;;;;;4954674;28;19941;-66
2023/12/20 02:12:30;;;;;;;;;;;5.70;99.90;;;;;;4939658;28;19925;-67
2023/12/20 02:14:58;;;;;;;;;;;5.80;99.90;;;;;;4951836;28;20626;-66
2023/12/20 02:17:25;;;;;;;;;;;5.80;99.90;;;;;;4940559;28;19940;-66
2023/12/20 02:19:51;;;;;;;;;;;5.70;99.90;;;;;;4968842;28;19925;-65
2023/12/20 02:22:17;;;;;;;;;;;5.80;99.90;;;;;;4943045;28;19933;-66
2023/12/20 02:24:42;;;;;;;;;;;5.80;99.90;;;;;;4971724;28;19931;-66
2023/12/20 02:27:08;;;;;;;;;;;5.90;99.90;;;;;;4946117;28;20454;-66
2023/12/20 02:29:35;;;;;;;;;;;5.90;99.90;;;;;;4958055;28;19931;-66
2023/12/20 02:32:01;;;;;;;;;;;6.00;99.90;;;;;;4946760;28;20547;-66
2023/12/20 02:34:26;;;;;;;;;;;6.00;99.90;;;;;;4951182;28;19925;-66
2023/12/20 02:36:52;;;;;;;;;;;6.00;99.90;;;;;;4946787;28;20334;-66
2023/12/20 02:39:19;;;;;;;;;;;6.10;99.90;;;;;;4970858;28;20038;-67
2023/12/20 02:41:45;;;;;;;;;;;6.10;99.90;;;;;;4952972;28;20943;-67
2023/12/20 02:44:10;;;;;;;;;;;6.10;99.90;;;;;;4992219;28;19932;-65
2023/12/20 02:46:36;;;;;;;;;;;6.20;99.90;;;;;;4931532;28;19933;-66
2023/12/20 02:49:02;;;;;;;;;;;6.20;99.90;;;;;;4954823;28;20430;-66
2023/12/20 02:51:28;;;;;;;;;;;6.20;99.90;;;;;;4952695;28;19929;-67
2023/12/20 02:53:54;;;;;;;;;;;6.20;99.90;;;;;;4992876;28;20888;-67
2023/12/20 02:56:20;;;;;;;;;;;6.20;99.90;;;;;;4978001;28;19925;-66
2023/12/20 02:58:46;;;;;;;;;;;6.20;99.90;;;;;;4935582;28;20036;-67
2023/12/20 03:01:12;;;;;;;;;;;6.20;99.90;;;;;;4959114;28;19975;-67
2023/12/20 03:03:37;;;;;;;;;;;6.20;99.90;;;;;;4927297;28;19933;-67
2023/12/20 03:06:03;;;;;;;;;;;6.20;99.90;;;;;;4954152;28;19925;-66
2023/12/20 03:08:29;;;;;;;;;;;6.20;99.90;;;;;;4921072;28;19933;-66
2023/12/20 03:10:55;;;;;;;;;;;6.20;99.90;;;;;;4958766;28;19929;-65
2023/12/20 03:13:21;;;;;;;;;;;6.20;99.90;;;;;;4933760;28;21316;-66
2023/12/20 03:15:47;;;;;;;;;;;6.20;99.90;;;;;;4958562;28;19932;-66
2023/12/20 03:18:13;;;;;;;;;;;6.20;99.90;;;;;;4938460;28;19925;-66
2023/12/20 03:20:40;;;;;;;;;;;6.30;99.90;;;;;;4961160;28;19925;-66
2023/12/20 03:23:06;;;;;;;;;;;6.20;99.90;;;;;;4928325;28;19929;-66
2023/12/20 03:25:32;;;;;;;;;;;6.20;99.90;;;;;;4976772;28;19925;-67
2023/12/20 03:27:59;;;;;;;;;;;6.20;99.90;;;;;;4932494;28;20036;-66
2023/12/20 03:30:24;;;;;;;;;;;6.20;99.90;;;;;;4963464;28;19933;-65
2023/12/20 03:32:51;;;;;;;;;;;6.20;99.90;;;;;;4932778;28;19925;-66
2023/12/20 03:35:16;;;;;;;;;;;6.20;99.90;;;;;;4956319;28;20975;-66
2023/12/20 03:37:42;;;;;;;;;;;6.20;99.90;;;;;;4929952;28;19933;-66
2023/12/20 03:40:08;;;;;;;;;;;6.20;99.90;;;;;;4957835;28;19935;-66
2023/12/20 03:42:34;;;;;;;;;;;6.20;99.90;;;;;;4953315;28;20435;-66
2023/12/20 03:45:00;;;;;;;;;;;6.30;99.90;;;;;;4958199;28;19929;-67
2023/12/20 03:47:26;;;;;;;;;;;6.30;99.90;;;;;;4942696;28;20012;-66
2023/12/20 03:49:52;;;;;;;;;;;6.30;99.90;;;;;;4956680;28;19932;-67
2023/12/20 03:52:18;;;;;;;;;;;6.40;99.90;;;;;;4930087;28;19929;-66
2023/12/20 03:54:44;;;;;;;;;;;6.40;99.90;;;;;;4947996;28;19930;-66
2023/12/20 03:57:10;;;;;;;;;;;6.50;99.90;;;;;;4937725;28;20422;-66
2023/12/20 03:59:37;;;;;;;;;;;6.50;99.90;;;;;;4954039;28;20380;-66
2023/12/20 04:02:03;;;;;;;;;;;6.50;99.90;;;;;;4933221;28;19929;-67
2023/12/20 04:04:30;;;;;;;;;;;6.50;99.90;;;;;;4945490;28;19925;-67
2023/12/20 04:06:55;;;;;;;;;;;6.50;99.90;;;;;;4943385;28;19936;-67
2023/12/20 04:09:21;;;;;;;;;;;6.60;99.90;;;;;;4971151;28;20497;-69
2023/12/20 04:11:47;;;;;;;;;;;6.60;99.90;;;;;;4933829;28;20047;-66
2023/12/20 04:14:29;;;;;;;;;;;6.60;99.90;;;;;;4952991;28;19936;-68
2023/12/20 04:17:04;;;;;;;;;;;6.70;99.90;;;;;;4952906;28;19999;-66
2023/12/20 04:19:30;;;;;;;;;;;6.70;99.90;;;;;;4975679;28;20328;-67
2023/12/20 04:21:56;;;;;;;;;;;6.70;99.90;;;;;;4933651;28;20032;-67
2023/12/20 04:24:22;;;;;;;;;;;6.70;99.90;;;;;;4967161;28;20272;-66
2023/12/20 04:26:48;;;;;;;;;;;6.70;99.90;;;;;;4939184;28;19925;-67
2023/12/20 04:29:14;;;;;;;;;;;6.70;99.90;;;;;;4983784;28;19930;-66
2023/12/20 04:31:40;;;;;;;;;;;6.70;99.90;;;;;;4937937;28;20430;-67
2023/12/20 04:34:06;;;;;;;;;;;6.80;99.90;;;;;;4973138;28;19936;-67
2023/12/20 04:36:31;;;;;;;;;;;6.80;99.90;;;;;;4935899;28;20621;-67
2023/12/20 04:38:57;;;;;;;;;;;6.80;99.90;;;;;;4959421;28;19932;-66
2023/12/20 04:41:23;;;;;;;;;;;6.80;99.90;;;;;;4955467;28;19933;-66
2023/12/20 04:43:49;;;;;;;;;;;6.90;99.90;;;;;;4946788;28;19934;-66
2023/12/20 04:46:15;;;;;;;;;;;6.90;99.90;;;;;;4977142;28;20499;-66
2023/12/20 04:48:41;;;;;;;;;;;6.90;99.90;;;;;;4931479;28;20000;-66
2023/12/20 04:51:07;;;;;;;;;;;6.90;99.90;;;;;;4960403;28;20514;-67
2023/12/20 04:53:33;;;;;;;;;;;6.80;99.90;;;;;;4938554;28;19936;-66
2023/12/20 04:55:58;;;;;;;;;;;6.90;99.90;;;;;;4962673;28;19929;-66
2023/12/20 04:58:25;;;;;;;;;;;6.90;99.90;;;;;;4930916;28;21075;-67
2023/12/20 05:00:51;;;;;;;;;;;7.00;99.90;;;;;;4992763;28;20003;-67
2023/12/20 05:03:17;;;;;;;;;;;7.00;99.90;;;;;;4920537;28;21022;-67
2023/12/20 05:05:42;;;;;;;;;;;7.00;99.90;;;;;;4962747;28;20411;-67
2023/12/20 05:08:09;;;;;;;;;;;7.00;99.90;;;;;;4944285;28;19929;-67
2023/12/20 05:10:37;;;;;;;;;;;7.00;99.90;;;;;;4947116;28;20909;-67
2023/12/20 05:13:03;;;;;;;;;;;7.00;99.90;;;;;;4916322;28;19933;-66
2023/12/20 05:15:29;;;;;;;;;;;7.00;99.90;;;;;;4961439;28;20037;-67
2023/12/20 05:17:55;;;;;;;;;;;7.00;99.90;;;;;;4936444;28;20407;-66
2023/12/20 05:20:21;;;;;;;;;;;7.10;99.90;;;;;;4962528;28;19929;-66
2023/12/20 05:22:48;;;;;;;;;;;7.10;99.90;;;;;;4937542;28;19933;-67
2023/12/20 05:25:13;;;;;;;;;;;7.10;99.90;;;;;;4943064;28;19951;-66
2023/12/20 05:27:40;;;;;;;;;;;7.10;99.90;;;;;;4936911;28;19952;-66
2023/12/20 05:30:06;;;;;;;;;;;7.20;99.90;;;;;;4964607;28;19925;-66
2023/12/20 05:32:32;;;;;;;;;;;7.20;99.90;;;;;;4930588;28;19925;-66
2023/12/20 05:34:58;;;;;;;;;;;7.20;99.90;;;;;;4960941;28;19951;-66
2023/12/20 05:37:24;;;;;;;;;;;7.10;99.90;;;;;;4935092;28;19932;-67
2023/12/20 05:39:49;;;;;;;;;;;7.10;99.90;;;;;;4966592;28;19925;-67
2023/12/20 05:42:15;;;;;;;;;;;7.20;99.90;;;;;;4941496;28;19936;-66
2023/12/20 05:44:41;;;;;;;;;;;7.20;99.90;;;;;;4961476;28;20434;-67
2023/12/20 05:47:07;;;;;;;;;;;7.20;99.90;;;;;;4932051;28;19932;-66
2023/12/20 05:49:33;;;;;;;;;;;7.20;99.90;;;;;;4939315;28;19926;-66
2023/12/20 05:51:59;;;;;;;;;;;7.20;99.90;;;;;;4944191;28;20000;-67
2023/12/20 05:54:25;;;;;;;;;;;7.30;99.90;;;;;;4958364;28;19926;-66
2023/12/20 05:56:51;;;;;;;;;;;7.30;99.90;;;;;;4935714;28;19935;-67
2023/12/20 05:59:17;;;;;;;;;;;7.30;99.90;;;;;;4969328;28;19925;-67
2023/12/20 06:01:42;;;;;;;;;;;7.30;99.90;;;;;;4945765;28;20473;-67
2023/12/20 06:04:08;;;;;;;;;;;7.40;99.90;;;;;;4965327;28;20158;-66
2023/12/20 06:06:35;;;;;;;;;;;7.30;99.90;;;;;;4930158;28;19930;-67
2023/12/20 06:09:02;;;;;;;;;;;7.40;99.90;;;;;;4957008;28;20674;-67
2023/12/20 06:11:28;;;;;;;;;;;7.40;99.90;;;;;;4931206;28;19925;-67
2023/12/20 06:13:54;;;;;;;;;;;7.40;99.90;;;;;;4987150;28;19948;-67
2023/12/20 06:16:20;;;;;;;;;;;7.40;99.90;;;;;;4958681;28;20503;-66
2023/12/20 06:18:46;;;;;;;;;;;7.30;99.90;;;;;;4954909;28;19929;-67
2023/12/20 06:21:12;;;;;;;;;;;7.30;99.90;;;;;;4957194;28;19930;-67
2023/12/20 06:23:38;;;;;;;;;;;7.30;99.90;;;;;;4929403;28;19930;-68
2023/12/20 06:26:04;;;;;;;;;;;7.40;99.90;;;;;;4955348;28;19933;-67
2023/12/20 06:28:30;;;;;;;;;;;7.30;99.90;;;;;;4925975;28;21168;-68
2023/12/20 06:30:57;;;;;;;;;;;7.30;99.90;;;;;;4960412;28;20001;-68
2023/12/20 06:33:23;;;;;;;;;;;7.30;99.90;;;;;;4961918;28;19924;-68
2023/12/20 06:35:49;;;;;;;;;;;7.20;99.90;;;;;;4957618;28;19925;-67
2023/12/20 06:38:15;;;;;;;;;;;7.20;99.90;;;;;;4931748;28;19925;-67
2023/12/20 06:40:42;;;;;;;;;;;7.30;99.90;;;;;;4951999;28;19937;-68
2023/12/20 06:43:08;;;;;;;;;;;7.20;99.90;;;;;;4917177;28;20621;-68
2023/12/20 06:45:34;;;;;;;;;;;7.30;99.90;;;;;;4957439;28;19926;-67
2023/12/20 06:48:00;;;;;;;;;;;7.30;99.90;;;;;;4925467;28;19930;-68
2023/12/20 06:50:26;;;;;;;;;;;7.30;99.90;;;;;;4954985;28;20451;-67
2023/12/20 06:52:52;;;;;;;;;;;7.40;99.90;;;;;;4930572;28;20017;-67
2023/12/20 06:55:18;;;;;;;;;;;7.40;99.90;;;;;;4958070;28;19937;-67
2023/12/20 06:57:44;;;;;;;;;;;7.40;99.90;;;;;;4919843;28;19925;-67
2023/12/20 07:00:11;;;;;;;;;;;7.40;99.90;;;;;;4957372;28;20535;-67
2023/12/20 07:02:36;;;;;;;;;;;7.50;99.90;;;;;;4957342;28;20137;-66
2023/12/20 07:05:03;;;;;;;;;;;7.50;99.90;;;;;;4955490;28;20502;-67
2023/12/20 07:07:28;;;;;;;;;;;7.50;99.90;;;;;;4920340;28;19936;-67
2023/12/20 07:09:54;;;;;;;;;;;7.60;99.90;;;;;;4953753;28;20552;-67
2023/12/20 07:12:20;;;;;;;;;;;7.50;99.90;;;;;;4927548;28;19926;-67
2023/12/20 07:14:46;;;;;;;;;;;7.60;99.90;;;;;;4973059;28;20826;-67
2023/12/20 07:17:14;;;;;;;;;;;7.60;99.90;;;;;;4941800;28;20022;-68
2023/12/20 07:19:41;;;;;;;;;;;7.60;99.90;;;;;;4974625;28;21061;-67
2023/12/20 07:22:07;;;;;;;;;;;7.60;99.90;;;;;;4925889;28;20031;-67
2023/12/20 07:24:33;;;;;;;;;;;7.60;99.90;;;;;;4952232;28;21029;-67
2023/12/20 07:26:59;;;;;;;;;;;7.60;99.90;;;;;;4927959;28;19926;-68
2023/12/20 07:29:25;;;;;;;;;;;7.70;99.90;;;;;;4967286;28;19925;-69
2023/12/20 07:31:53;;;;;;;;;;;7.70;99.90;;;;;;4938368;28;20112;-69
2023/12/20 07:34:20;;;;;;;;;;;7.70;99.90;;;;;;4935157;28;19930;-69
2023/12/20 07:36:46;;;;;;;;;;;7.70;99.90;;;;;;4924891;28;20093;-67
2023/12/20 07:39:12;;;;;;;;;;;7.70;99.90;;;;;;4950642;28;19929;-67
2023/12/20 07:41:37;;;;;;;;;;;7.70;99.90;;;;;;4929661;28;20406;-67
2023/12/20 07:44:04;;;;;;;;;;;7.70;99.90;;;;;;4956186;28;19936;-68
2023/12/20 07:46:30;;;;;;;;;;;7.70;99.90;;;;;;4932054;28;19929;-68
2023/12/20 07:48:56;;;;;;;;;;;7.70;99.90;;;;;;4971709;28;20333;-67
2023/12/20 07:51:22;;;;;;;;;;;7.70;99.90;;;;;;4972598;28;20730;-67
2023/12/20 07:53:48;;;;;;;;;;;7.70;99.90;;;;;;4965511;28;21221;-68
2023/12/20 07:56:17;;;;;;;;;;;7.70;99.90;;;;;;4957781;28;20308;-68
2023/12/20 07:58:44;;;;;;;;;;;7.70;99.90;;;;;;4945473;28;19925;-68
2023/12/20 08:01:10;;;;;;;;;;;7.80;99.90;;;;;;4959968;28;19958;-69
2023/12/20 08:03:36;;;;;;;;;;;7.80;99.90;;;;;;4927767;28;19930;-68
2023/12/20 08:06:02;;;;;;;;;;;7.70;99.90;;;;;;4960562;28;20359;-67
2023/12/20 08:08:28;;;;;;;;;;;7.70;99.90;;;;;;4962129;28;19932;-68
2023/12/20 08:10:54;;;;;;;;;;;7.80;99.90;;;;;;4959988;28;19941;-68
2023/12/20 08:13:24;;;;;;;;;;;7.80;99.90;;;;;;4936179;28;20414;-67
2023/12/20 08:15:50;;;;;;;;;;;7.80;99.90;;;;;;4963686;28;19937;-67
2023/12/20 08:18:16;;;;;;;;;;;7.80;99.90;;;;;;4932306;28;21228;-67
2023/12/20 08:20:42;;;;;;;;;;;7.80;99.90;;;;;;4960363;28;19936;-67
2023/12/20 08:23:08;;;;;;;;;;;7.80;99.90;;;;;;4932999;28;20638;-68
2023/12/20 08:25:34;;;;;;;;;;;7.90;99.90;;;;;;4963558;28;19925;-67
2023/12/20 08:28:01;;;;;;;;;;;7.90;99.90;;;;;;4938712;28;19929;-67
2023/12/20 08:30:26;;;;;;;;;;;8.00;99.90;;;;;;4964736;28;19925;-69
2023/12/20 08:32:52;;;;;;;;;;;8.00;99.90;;;;;;4933411;28;20437;-68
2023/12/20 08:35:19;;;;;;;;;;;7.90;99.90;;;;;;4961302;28;19936;-68
2023/12/20 08:37:45;;;;;;;;;;;7.50;99.90;;;;;;4923532;28;19929;-68
2023/12/20 08:40:11;;;;;;;;;;;7.10;99.90;;;;;;4956865;28;19952;-69
2023/12/20 08:42:37;;;;;;;;;;;7.10;99.90;;;;;;4942685;28;19930;-69
2023/12/20 08:45:04;;;;;;;;;;;7.00;99.90;;;;;;4977131;28;19931;-69
2023/12/20 08:47:30;;;;;;;;;;;7.00;99.90;;;;;;4926566;28;20542;-70
2023/12/20 08:49:59;;;;;;;;;;;6.90;99.90;;;;;;4947062;28;19948;-70
2023/12/20 08:52:27;;;;;;;;;;;6.90;99.90;;;;;;4933866;28;19993;-70
2023/12/20 08:54:53;;;;;;;;;;;6.90;99.90;;;;;;4953667;28;19932;-72
2023/12/20 08:57:20;;;;;;;;;;;7.00;99.90;;;;;;4948510;28;19925;-70
2023/12/20 08:59:50;;;;;;;;;;;7.20;99.90;;;;;;4976152;28;19936;-69
2023/12/20 09:02:16;;;;;;;;;;;7.30;99.90;;;;;;4934915;28;19925;-70
2023/12/20 09:04:42;;;;;;;;;;;7.40;99.90;;;;;;4953316;28;19929;-70
2023/12/20 09:07:20;;;;;;;;;;;7.60;99.90;;;;;;4935174;28;20419;-69
2023/12/20 09:09:46;;;;;;;;;;;7.80;99.90;;;;;;4960544;28;19929;-69
2023/12/20 09:12:12;;;;;;;;;;;7.90;99.90;;;;;;4934115;28;19936;-68
2023/12/20 09:14:38;;;;;;;;;;;7.90;99.90;;;;;;4951067;28;19933;-68
2023/12/20 09:17:04;;;;;;;;;;;7.90;99.90;;;;;;4934831;28;19975;-68
2023/12/20 09:19:30;;;;;;;;;;;8.00;99.90;;;;;;4958950;28;20456;-69
2023/12/20 09:21:56;;;;;;;;;;;8.10;99.90;;;;;;4938952;28;19936;-68
2023/12/20 09:24:22;;;;;;;;;;;8.20;99.90;;;;;;4976073;28;19940;-68
2023/12/20 09:26:47;;;;;;;;;;;8.30;99.90;;;;;;4936153;28;19930;-68
2023/12/20 09:29:15;;;;;;;;;;;8.50;99.90;;;;;;4966532;28;19925;-76
2023/12/20 09:31:43;;;;;;;;;;;8.30;99.90;;;;;;4948229;28;19926;-72
2023/12/20 09:34:09;;;;;;;;;;;7.30;99.90;;;;;;4970365;28;19933;-76
2023/12/20 09:36:36;;;;;;;;;;;6.70;99.90;;;;;;4949868;28;19926;-75
2023/12/20 09:39:02;;;;;;;;;;;6.40;99.90;;;;;;4946212;28;19925;-75
2023/12/20 09:41:31;;;;;;;;;;;6.30;99.90;;;;;;4954548;28;20031;-75
2023/12/20 09:43:59;;;;;;;;;;;6.10;99.90;;;;;;4969273;28;19937;-75
2023/12/20 09:46:26;;;;;;;;;;;6.10;99.90;;;;;;4947999;28;19925;-74
2023/12/20 09:48:53;;;;;;;;;;;6.00;99.90;;;;;;4940956;28;19936;-72
2023/12/20 09:51:19;;;;;;;;;;;6.00;99.90;;;;;;4960141;28;20329;-72
2023/12/20 09:53:46;;;;;;;;;;;6.00;99.90;;;;;;4947803;28;19947;-72
2023/12/20 09:56:12;;;;;;;;;;;6.00;99.90;;;;;;4993259;28;20368;-72
2023/12/20 09:58:39;;;;;;;;;;;6.00;99.90;;;;;;4913496;28;19936;-72
2023/12/20 10:01:05;;;;;;;;;;;6.00;99.90;;;;;;4992886;28;20514;-72
2023/12/20 10:03:31;;;;;;;;;;;6.00;99.90;;;;;;4964096;28;19932;-72
2023/12/20 10:06:00;;;;;;;;;;;6.00;99.90;;;;;;4959528;28;19925;-72
2023/12/20 10:08:26;;;;;;;;;;;6.00;99.90;;;;;;4925358;28;20003;-71
2023/12/20 10:10:52;;;;;;;;;;;6.10;99.90;;;;;;4992873;28;20629;-72
2023/12/20 10:13:18;;;;;;;;;;;6.10;99.90;;;;;;4965147;28;19929;-71
2023/12/20 10:15:44;;;;;;;;;;;6.10;99.90;;;;;;4961047;28;19925;-71
2023/12/20 10:18:11;;;;;;;;;;;6.10;99.90;;;;;;4938257;28;20934;-70
2023/12/20 10:20:37;;;;;;;;;;;6.20;99.90;;;;;;4955205;28;20607;-70
2023/12/20 10:23:03;;;;;;;;;;;6.20;99.90;;;;;;4920279;28;20482;-70
2023/12/20 10:25:31;;;;;;;;;;;6.20;99.90;;;;;;4959014;28;19929;-70
2023/12/20 10:28:13;;;;;;;;;;;6.20;99.90;;;;;;4931889;28;19927;-71
2023/12/20 10:30:40;;;;;;;;;;;6.20;99.90;;;;;;4954520;28;19932;-71
2023/12/20 10:33:07;;;;;;;;;;;6.20;99.90;;;;;;4933871;28;19925;-70
2023/12/20 10:35:34;;;;;;;;;;;6.20;99.90;;;;;;4956256;28;20447;-70
2023/12/20 10:38:03;;;;;;;;;;;6.30;99.90;;;;;;4936747;28;20392;-70
2023/12/20 10:40:29;;;;;;;;;;;6.30;99.90;;;;;;4957111;28;19965;-69
2023/12/20 10:42:55;;;;;;;;;;;6.30;99.90;;;;;;4934173;28;19944;-69
2023/12/20 10:45:22;;;;;;;;;;;6.30;99.90;;;;;;4958125;28;20484;-70
2023/12/20 10:47:49;;;;;;;;;;;6.40;99.90;;;;;;4952058;28;20590;-69
2023/12/20 10:50:15;;;;;;;;;;;6.40;99.90;;;;;;4962305;28;19925;-70
2023/12/20 10:52:42;;;;;;;;;;;6.50;99.90;;;;;;4950966;28;19951;-69
2023/12/20 10:55:08;;;;;;;;;;;6.50;99.90;;;;;;4958522;28;19936;-69
2023/12/20 10:57:35;;;;;;;;;;;6.60;99.90;;;;;;4927709;28;19951;-69
2023/12/20 11:00:04;;;;;;;;;;;6.60;99.90;;;;;;4963991;28;19930;-69
2023/12/20 11:02:32;;;;;;;;;;;6.70;99.90;;;;;;4932099;28;20700;-69
2023/12/20 11:04:58;;;;;;;;;;;6.70;99.90;;;;;;4959713;28;19945;-69
2023/12/20 11:07:33;;;;;;;;;;;6.70;99.90;;;;;;4947969;28;19975;-70
2023/12/20 11:10:19;;;;;;;;;;;6.80;99.90;;;;;;4971355;28;19925;-69
2023/12/20 11:12:51;;;;;;;;;;;6.80;99.90;;;;;;4928474;28;20540;-69
2023/12/20 11:15:18;;;;;;;;;;;6.80;99.90;;;;;;4961969;28;19932;-71
2023/12/20 11:17:54;;;;;;;;;;;6.80;99.90;;;;;;4923811;28;19936;-69
2023/12/20 11:20:22;;;;;;;;;;;6.80;99.90;;;;;;4960503;28;19968;-69
2023/12/20 11:22:52;;;;;;;;;;;6.80;99.90;;;;;;4953426;28;21141;-69
2023/12/20 11:25:21;;;;;;;;;;;6.90;99.90;;;;;;4967143;28;20930;-71
2023/12/20 11:28:06;;;;;;;;;;;6.90;99.90;;;;;;4920907;28;19926;-69
2023/12/20 11:30:42;;;;;;;;;;;6.90;99.90;;;;;;4957562;28;19925;-69
2023/12/20 11:33:08;;;;;;;;;;;7.00;99.90;;;;;;4926515;28;19925;-69
2023/12/20 11:35:36;;;;;;;;;;;7.00;99.90;;;;;;4957652;28;19925;-69
2023/12/20 11:38:02;;;;;;;;;;;7.10;99.90;;;;;;4934480;28;19933;-69
2023/12/20 11:40:28;;;;;;;;;;;7.20;99.90;;;;;;4957242;28;19945;-68
2023/12/20 11:42:54;;;;;;;;;;;7.10;99.90;;;;;;4929239;28;19925;-68
2023/12/20 11:45:23;;;;;;;;;;;7.20;99.90;;;;;;4981454;28;19937;-68
2023/12/20 11:47:50;;;;;;;;;;;7.20;99.90;;;;;;4943117;28;20216;-69
2023/12/20 11:50:17;;;;;;;;;;;7.30;99.90;;;;;;4969859;28;19926;-68
2023/12/20 11:52:42;;;;;;;;;;;7.30;99.90;;;;;;4943729;28;19925;-68
2023/12/20 11:55:08;;;;;;;;;;;7.30;99.90;;;;;;4971241;28;19932;-68
2023/12/20 11:57:35;;;;;;;;;;;7.40;99.90;;;;;;4958080;28;19936;-69
2023/12/20 12:00:02;;;;;;;;;;;7.30;99.90;;;;;;4970308;28;19936;-68
2023/12/20 12:02:28;;;;;;;;;;;7.30;99.90;;;;;;4943840;28;19935;-68
2023/12/20 12:04:54;;;;;;;;;;;7.30;99.90;;;;;;4982347;28;20576;-68
2023/12/20 12:07:21;;;;;;;;;;;7.30;99.90;;;;;;4969506;28;19925;-69
2023/12/20 12:09:47;;;;;;;;;;;7.30;99.90;;;;;;4972846;28;19937;-68
2023/12/20 12:12:13;;;;;;;;;;;7.30;99.90;;;;;;4948856;28;19926;-68
2023/12/20 12:14:40;;;;;;;;;;;7.30;99.90;;;;;;4961032;28;19936;-70
2023/12/20 12:17:13;;;;;;;;;;;7.30;99.90;;;;;;4959502;28;19925;-68
2023/12/20 12:19:39;;;;;;;;;;;7.30;99.90;;;;;;4940502;28;19932;-68
2023/12/20 12:22:10;;;;;;;;;;;7.30;99.90;;;;;;4959709;28;19925;-68
2023/12/20 12:24:37;;;;;;;;;;;7.30;99.90;;;;;;4933621;28;19929;-68
2023/12/20 12:27:03;;;;;;;;;;;7.20;99.90;;;;;;4961067;28;19941;-68
2023/12/20 12:29:29;;;;;;;;;;;7.20;99.90;;;;;;4962432;28;19933;-67
2023/12/20 12:31:55;;;;;;;;;;;7.20;99.90;;;;;;4959902;28;19925;-68
2023/12/20 12:34:21;;;;;;;;;;;7.20;99.90;;;;;;4963972;28;20064;-67
2023/12/20 12:36:48;;;;;;;;;;;7.20;99.90;;;;;;4960253;28;20599;-67
2023/12/20 12:39:17;;;;;;;;;;;7.20;99.90;;;;;;4929095;28;19926;-67
2023/12/20 12:41:43;;;;;;;;;;;7.10;99.90;;;;;;4975911;28;19932;-68
2023/12/20 12:44:09;;;;;;;;;;;7.20;99.90;;;;;;4906077;28;20068;-67
2023/12/20 12:46:35;;;;;;;;;;;7.10;99.90;;;;;;4961023;28;19934;-67
2023/12/20 12:49:01;;;;;;;;;;;7.10;99.90;;;;;;4959480;28;19925;-68
2023/12/20 12:51:27;;;;;;;;;;;7.10;99.90;;;;;;4957889;28;19925;-67
2023/12/20 12:53:53;;;;;;;;;;;7.10;99.90;;;;;;4927386;28;19932;-67
2023/12/20 12:56:19;;;;;;;;;;;7.10;99.90;;;;;;4960474;28;19937;-67
2023/12/20 12:58:45;;;;;;;;;;;7.10;99.90;;;;;;4929294;28;20755;-67
2023/12/20 13:01:11;;;;;;;;;;;7.10;99.90;;;;;;4954055;28;19989;-67
2023/12/20 13:03:37;;;;;;;;;;;7.10;99.90;;;;;;4918551;28;19929;-67
2023/12/20 13:06:05;;;;;;;;;;;7.10;99.90;;;;;;4966979;28;21139;-68
2023/12/20 13:08:32;;;;;;;;;;;7.10;99.90;;;;;;4943626;28;19937;-68
2023/12/20 13:11:00;;;;;;;;;;;7.10;99.90;;;;;;4971298;28;19925;-69
2023/12/20 13:13:26;;;;;;;;;;;7.10;99.90;;;;;;4968531;28;19929;-70
2023/12/20 13:15:54;;;;;;;;;;;7.00;99.90;;;;;;4969609;28;19940;-70
2023/12/20 13:18:21;;;;;;;;;;;6.90;99.90;;;;;;4926681;28;20560;-70
2023/12/20 13:20:47;;;;;;;;;;;6.80;99.90;;;;;;4959666;28;19929;-70
2023/12/20 13:23:13;;;;;;;;;;;6.70;99.90;;;;;;4931551;28;19963;-72
2023/12/20 13:25:39;;;;;;;;;;;6.60;99.90;;;;;;4970425;28;20823;-72
2023/12/20 13:28:05;;;;;;;;;;;6.50;99.90;;;;;;4929747;28;20297;-72
2023/12/20 13:30:31;;;;;;;;;;;6.40;99.90;;;;;;4961483;28;20701;-72
2023/12/20 13:32:57;;;;;;;;;;;6.40;99.90;;;;;;4935302;28;19933;-74
2023/12/20 13:35:23;;;;;;;;;;;6.30;99.90;;;;;;4974184;28;19931;-74
2023/12/20 13:37:49;;;;;;;;;;;6.30;99.90;;;;;;4936969;28;20396;-73
2023/12/20 13:40:15;;;;;;;;;;;6.30;99.90;;;;;;4954601;28;19926;-75
2023/12/20 13:42:41;;;;;;;;;;;6.30;99.90;;;;;;4928707;28;20047;-74
2023/12/20 13:45:07;;;;;;;;;;;6.30;99.90;;;;;;4957968;28;21093;-76
2023/12/20 13:47:33;;;;;;;;;;;6.30;99.90;;;;;;4935312;28;20503;-75
2023/12/20 13:49:59;;;;;;;;;;;6.20;99.90;;;;;;4952346;28;20203;-75
2023/12/20 13:52:25;;;;;;;;;;;6.20;99.90;;;;;;4937211;28;22254;-75
2023/12/20 13:54:51;;;;;;;;;;;6.20;99.90;;;;;;4962063;28;20010;-75
2023/12/20 13:57:17;;;;;;;;;;;6.20;99.90;;;;;;4935303;28;19925;-75
2023/12/20 13:59:43;;;;;;;;;;;6.20;99.90;;;;;;4963175;28;19986;-75
2023/12/20 14:02:09;;;;;;;;;;;6.20;99.90;;;;;;4952989;28;20925;-76
2023/12/20 14:04:35;;;;;;;;;;;6.20;99.90;;;;;;4982439;28;19936;-76
2023/12/20 14:07:01;;;;;;;;;;;6.20;99.90;;;;;;4981777;28;19930;-75
2023/12/20 14:09:27;;;;;;;;;;;6.20;99.90;;;;;;4956566;28;19941;-73
2023/12/20 14:11:54;;;;;;;;;;;6.20;99.90;;;;;;4942157;28;20531;-73
2023/12/20 14:14:20;;;;;;;;;;;6.20;99.90;;;;;;4965187;28;20299;-72
2023/12/20 14:16:46;;;;;;;;;;;6.20;99.90;;;;;;4991851;28;19937;-72
2023/12/20 14:19:12;;;;;;;;;;;6.20;99.90;;;;;;4936171;28;20019;-72
2023/12/20 14:21:38;;;;;;;;;;;6.20;99.90;;;;;;4957954;28;19941;-73
2023/12/20 14:24:04;;;;;;;;;;;6.20;99.90;;;;;;4917289;28;19930;-75
2023/12/20 14:26:31;;;;;;;;;;;6.20;99.90;;;;;;4989901;28;20720;-76